Latest Weather Observations for Geelong Racecourse

IDV60801

Issued at 6:22 am EDT Friday 21 January 2022 (issued every 10 minutes, with the page automatically refreshed every 10 minutes)

About weather observations | Map of weather stations | Latest weather observations for VIC | Other Formats
Station Details ID: 087184 Name: GEELONG RACECOURSE Lat: -38.17 Lon: 144.38 Height: 12.9 m
Data from the previous 72 hours. | See also: Recent months at Geelong Racecourse
Date/Time
EDT
Temp
°C
App
Temp
°C
Dew
Point
°C
Rel
Hum
%
Delta-T
°C
Wind Press
QNH
hPa
Press
MSL
hPa
Rain since
9am
mm
Dir  Spd
km/h
Gust
km/h
Spd
kts
Gust
kts
21/06:00am 13.9 14.0 12.8 93 0.6 SSW 4 6 2 3 1026.5 1026.5 0.0
21/05:30am 14.2 14.4 12.9 92 0.7 SSW 4 6 2 3 1026.4 1026.4 0.0
21/05:00am 14.4 14.6 13.0 91 0.8 SSW 4 6 2 3 1026.3 1026.3 0.0
21/04:30am 14.7 15.1 12.6 87 1.1 SSE 2 6 1 3 1026.2 1026.2 0.0
21/04:00am 15.7 15.7 13.7 88 1.1 SE 6 7 3 4 1026.1 1026.1 0.0
21/03:30am 15.1 15.3 13.1 88 1.1 S 4 4 2 2 1025.9 1025.9 0.0
21/03:00am 15.0 14.8 13.0 88 1.1 S 6 7 3 4 1025.9 1025.9 0.0
21/02:30am 15.6 15.5 13.3 86 1.3 S 6 7 3 4 1025.9 1025.9 0.0
21/02:00am 16.1 15.8 12.8 81 1.8 S 6 7 3 4 1026.0 1026.0 0.0
21/01:30am 17.2 17.2 13.5 79 2.1 SE 6 11 3 6 1026.1 1026.1 0.0
21/01:00am 17.6 17.4 13.5 77 2.3 SE 7 11 4 6 1026.1 1026.1 0.0
21/12:30am 17.7 17.6 13.2 75 2.5 SE 6 9 3 5 1026.1 1026.1 0.0
21/12:00am 18.3 17.6 13.2 72 2.9 ESE 9 15 5 8 1026.1 1026.1 0.0
 
Date/Time
EDT
Temp
°C
App
Temp
°C
Dew
Point
°C
Rel
Hum
%
Delta-T
°C
Wind Press
QNH
hPa
Press
MSL
hPa
Rain since
9am
mm
Dir  Spd
km/h
Gust
km/h
Spd
kts
Gust
kts
20/11:30pm 18.8 17.6 12.8 68 3.4 ESE 11 19 6 10 1026.2 1026.2 0.0
20/11:00pm 19.2 19.1 13.2 68 3.4 E 6 13 3 7 1026.0 1026.0 0.0
20/10:30pm 18.7 18.8 14.0 74 2.7 ESE 6 20 3 11 1026.0 1026.0 0.0
20/10:00pm 18.0 17.7 14.5 80 2.0 S 9 13 5 7 1025.8 1025.8 0.0
20/09:30pm 18.6 18.3 14.5 77 2.4 S 9 13 5 7 1025.5 1025.5 0.0
20/09:00pm 19.4 18.6 14.0 71 3.1 S 11 15 6 8 1025.2 1025.2 0.0
20/08:30pm 20.5 19.0 14.2 67 3.7 SSE 15 22 8 12 1024.9 1024.9 0.0
20/08:00pm 21.3 19.2 14.7 66 3.9 SE 19 26 10 14 1024.7 1024.7 0.0
20/07:30pm 22.8 20.6 14.4 59 4.9 SE 19 28 10 15 1024.7 1024.7 0.0
20/07:00pm 23.6 21.2 14.3 56 5.5 SSE 20 30 11 16 1024.6 1024.6 0.0
20/06:30pm 23.9 21.0 14.0 54 5.8 SE 22 30 12 16 1024.6 1024.6 0.0
20/06:00pm 24.4 21.6 14.2 53 6.0 SE 22 32 12 17 1024.5 1024.5 0.0
20/05:30pm 24.8 22.0 14.3 52 6.2 SSE 22 32 12 17 1024.7 1024.7 0.0
20/05:00pm 25.8 23.5 14.0 48 7.0 SSE 19 28 10 15 1025.1 1025.1 0.0
20/04:30pm 25.7 23.0 13.5 46 7.2 SSE 20 28 11 15 1025.4 1025.4 0.0
20/04:00pm 26.0 22.7 12.8 44 7.6 SSE 22 32 12 17 1025.6 1025.6 0.0
20/03:30pm 26.2 23.5 13.0 44 7.7 SE 19 28 10 15 1026.2 1026.2 0.0
20/03:00pm 26.0 23.2 12.5 43 7.8 SSE 19 33 10 18 1026.3 1026.3 0.0
20/02:30pm 26.7 24.5 12.0 40 8.5 SE 15 28 8 15 1026.4 1026.4 0.0
20/02:00pm 25.9 21.9 8.4 33 9.4 ESE 19 30 10 16 1026.6 1026.6 0.0
20/01:30pm 25.4 22.4 9.3 36 8.8 ESE 15 26 8 14 1027.0 1027.0 0.0
20/01:00pm 24.6 21.3 9.7 39 8.1 ESE 17 32 9 17 1027.4 1027.4 0.0
20/12:30pm 24.8 21.4 9.1 37 8.5 ESE 17 30 9 16 1027.6 1027.6 0.0
20/12:00pm 23.9 21.3 9.5 40 7.8 ESE 13 22 7 12 1027.9 1027.9 0.0
20/11:30am 23.0 20.3 10.4 45 6.9 ESE 15 30 8 16 1028.1 1028.1 0.0
20/11:00am 22.8 19.9 10.9 47 6.6 SE 17 30 9 16 1028.3 1028.3 0.0
20/10:30am 21.9 19.9 11.6 52 5.7 ESE 13 22 7 12 1028.4 1028.4 0.0
20/10:00am 20.8 18.3 11.2 54 5.3 E 15 24 8 13 1028.3 1028.3 0.0
20/09:30am 20.4 17.5 11.1 55 5.1 E 17 26 9 14 1028.3 1028.3 0.0
20/09:00am 19.6 17.3 11.6 60 4.4 ESE 15 24 8 13 1028.4 1028.4 0.0
20/08:30am 19.2 17.6 11.7 62 4.1 ESE 11 20 6 11 1028.2 1028.2 0.0
20/08:00am 18.3 16.9 12.1 67 3.4 SE 11 15 6 8 1028.1 1028.1 0.0
20/07:30am 17.4 16.3 12.1 71 2.9 SE 9 13 5 7 1028.3 1028.3 0.0
20/07:00am 15.9 15.1 11.7 76 2.3 SE 7 13 4 7 1028.2 1028.2 0.0
20/06:30am 15.4 14.1 11.4 77 2.1 SE 9 13 5 7 1027.8 1027.8 0.0
20/06:00am 15.7 14.5 11.7 77 2.1 SE 9 15 5 8 1027.6 1027.6 0.0
20/05:30am 15.9 15.2 12.1 78 2.1 SE 7 13 4 7 1027.3 1027.3 0.0
20/05:00am 15.9 14.8 12.1 78 2.1 SE 9 19 5 10 1027.0 1027.0 0.0
20/04:30am 16.0 14.9 11.8 76 2.3 SE 9 13 5 7 1026.8 1026.8 0.0
20/04:00am 16.4 14.9 12.0 75 2.4 SE 11 17 6 9 1026.5 1026.5 0.0
20/03:30am 16.4 14.9 12.0 75 2.4 SE 11 26 6 14 1026.6 1026.6 0.0
20/03:00am 16.6 15.8 11.7 73 2.6 ESE 7 17 4 9 1027.0 1027.0 0.0
20/02:30am 16.7 15.2 11.8 73 2.7 ESE 11 17 6 9 1027.1 1027.1 0.0
20/02:00am 16.7 15.2 11.8 73 2.7 SE 11 19 6 10 1027.2 1027.2 0.0
20/01:30am 16.8 15.9 11.5 71 2.9 ESE 7 13 4 7 1027.4 1027.4 0.0
20/01:00am 17.3 15.7 11.6 69 3.1 ESE 11 20 6 11 1027.5 1027.5 0.0
20/12:30am 17.3 15.6 11.3 68 3.2 ESE 11 20 6 11 1027.2 1027.2 0.0
20/12:00am 17.7 15.2 11.0 65 3.6 E 15 28 8 15 1027.2 1027.2 0.0
 
Date/Time
EDT
Temp
°C
App
Temp
°C
Dew
Point
°C
Rel
Hum
%
Delta-T
°C
Wind Press
QNH
hPa
Press
MSL
hPa
Rain since
9am
mm
Dir  Spd
km/h
Gust
km/h
Spd
kts
Gust
kts
19/11:30pm 18.1 14.9 11.2 64 3.7 ESE 19 32 10 17 1026.8 1026.8 0.0
19/11:00pm 18.2 16.0 10.8 62 4.0 ESE 13 24 7 13 1026.6 1026.6 0.0
19/10:30pm 18.5 16.2 10.6 60 4.3 SE 13 20 7 11 1026.4 1026.4 0.0
19/10:00pm 19.0 16.7 10.6 58 4.5 ESE 13 26 7 14 1026.4 1026.4 0.0
19/09:30pm 19.3 17.0 10.3 56 4.8 ESE 13 24 7 13 1026.1 1026.1 0.0
19/09:00pm 19.9 17.3 10.6 55 5.0 ESE 15 28 8 15 1025.5 1025.5 0.0
19/08:30pm 20.5 17.1 10.6 53 5.4 ESE 19 33 10 18 1025.3 1025.3 0.0
19/08:00pm 21.5 18.5 10.6 50 5.9 ESE 17 30 9 16 1025.0 1025.0 0.0
19/07:30pm 22.1 18.4 10.3 47 6.4 E 20 37 11 20 1024.4 1024.4 0.0
19/07:00pm 22.9 19.1 11.3 48 6.4 ESE 22 39 12 21 1024.0 1024.0 0.0
19/06:30pm 22.8 19.6 13.0 54 5.6 SE 22 32 12 17 1023.6 1023.6 0.0
19/06:00pm 22.3 17.4 12.5 53 5.5 SE 30 44 16 24 1023.4 1023.4 0.0
19/05:30pm 21.8 15.3 11.8 53 5.6 SE 37 57 20 31 1023.6 1023.6 0.0
19/05:00pm 22.3 16.1 12.5 53 5.5 SE 37 57 20 31 1023.7 1023.7 0.0
19/04:39pm 22.1 15.0 12.1 53 5.6 SE 41 61 22 33 1023.6 1023.6 0.0
19/04:30pm 22.5 16.2 12.2 52 5.8 SE 37 54 20 29 1023.5 1023.5 0.0
19/04:00pm 23.0 15.9 12.3 51 6.1 SE 41 61 22 33 1023.3 1023.3 0.0
19/03:30pm 23.1 17.7 12.7 52 6.0 SE 33 56 18 30 1023.3 1023.3 0.0
19/03:26pm 23.6 18.3 12.6 50 6.3 SE 32 56 17 30 1023.2 1023.2 0.0
19/03:00pm 24.2 19.8 12.8 49 6.5 SE 28 41 15 22 1023.2 1023.2 0.0
19/02:31pm 24.1 19.5 13.6 52 6.1 SE 30 48 16 26 1023.3 1023.3 0.0
19/02:30pm 23.9 18.9 13.4 51 6.1 SE 32 48 17 26 1023.3 1023.3 0.0
19/02:03pm 23.9 19.4 13.7 52 6.0 SE 30 50 16 27 1023.2 1023.2 0.0
19/02:00pm 23.4 18.5 13.6 54 5.7 SE 32 50 17 27 1023.3 1023.3 0.0
19/01:30pm 23.4 18.5 13.8 54 5.6 SSE 32 50 17 27 1023.2 1023.2 0.0
19/01:29pm 23.5 18.8 14.2 56 5.5 SSE 32 50 17 27 1023.2 1023.2 0.0
19/01:00pm 22.7 18.3 14.0 58 5.1 SE 30 48 16 26 1023.3 1023.3 0.0
19/12:30pm 24.4 21.1 11.7 45 7.2 ESE 20 39 11 21 1023.2 1023.2 0.0
19/12:00pm 24.1 20.3 12.4 48 6.7 SE 24 44 13 24 1023.1 1023.1 0.0
19/11:30am 23.1 19.9 13.0 53 5.8 ESE 22 37 12 20 1023.2 1023.2 0.0
19/11:00am 22.0 18.5 13.4 58 4.9 SE 24 39 13 21 1023.3 1023.3 0.0
19/10:30am 21.7 18.3 13.6 60 4.7 SE 24 43 13 23 1023.2 1023.2 0.0
19/10:00am 21.3 18.2 13.5 61 4.5 SE 22 41 12 22 1023.1 1023.1 0.0
19/09:30am 21.5 19.0 14.2 63 4.3 SE 20 32 11 17 1022.9 1022.9 0.0
19/09:00am 21.1 18.0 14.5 66 3.8 SE 24 43 13 23 1022.6 1022.6 0.0
19/08:30am 19.9 17.0 14.0 69 3.4 SE 22 37 12 20 1021.9 1021.9 0.0
19/08:00am 19.5 17.3 14.3 72 3.0 SE 19 30 10 16 1021.5 1021.5 0.0
19/07:30am 18.7 16.4 14.2 75 2.6 SE 19 30 10 16 1021.0 1021.0 0.0
19/07:00am 17.7 15.8 14.2 80 2.0 SE 17 26 9 14 1020.7 1020.7 0.0
19/06:30am 17.4 15.5 14.1 81 1.9 SE 17 26 9 14 1020.3 1020.3 0.0
19/06:00am 17.4 15.9 14.1 81 1.9 SE 15 26 8 14 1020.0 1020.0 0.0
19/05:30am 17.6 16.1 14.3 81 1.9 SE 15 24 8 13 1019.8 1019.8 0.0
19/05:00am 17.6 16.1 14.3 81 1.9 SE 15 24 8 13 1019.6 1019.6 0.0
19/04:30am 16.4 15.9 13.9 85 1.4 SE 9 15 5 8 1019.5 1019.5 0.0
19/04:00am 15.3 14.9 13.0 86 1.3 SSE 7 13 4 7 1019.3 1019.3 0.0
19/03:30am 14.8 14.4 12.5 86 1.3 SSE 6 9 3 5 1019.1 1019.1 0.0
19/03:00am 15.2 14.8 12.5 84 1.5 SE 6 7 3 4 1019.2 1019.2 0.0
19/02:30am 15.6 14.6 12.4 81 1.8 SSE 9 11 5 6 1019.2 1019.2 0.0
19/02:00am 16.2 15.3 12.6 79 2.0 SE 9 13 5 7 1019.4 1019.4 0.0
19/01:30am 16.8 15.6 12.9 78 2.2 SSE 11 17 6 9 1019.4 1019.4 0.0
19/01:00am 17.1 14.9 13.2 78 2.2 S 17 24 9 13 1019.5 1019.5 0.0
19/12:30am 16.8 14.9 13.1 79 2.1 S 15 20 8 11 1019.5 1019.5 0.0
19/12:00am 16.6 13.8 12.6 77 2.2 S 19 24 10 13 1019.5 1019.5 0.0
 
Date/Time
EDT
Temp
°C
App
Temp
°C
Dew
Point
°C
Rel
Hum
%
Delta-T
°C
Wind Press
QNH
hPa
Press
MSL
hPa
Rain since
9am
mm
Dir  Spd
km/h
Gust
km/h
Spd
kts
Gust
kts
18/11:30pm 16.3 13.8 12.3 77 2.2 S 17 24 9 13 1019.7 1019.7 0.0
18/11:00pm 16.4 13.4 12.0 75 2.4 S 19 26 10 14 1019.6 1019.6 0.0
18/10:30pm 16.4 13.6 11.3 72 2.7 S 17 20 9 11 1019.6 1019.6 0.0
18/10:00pm 16.0 13.7 10.5 70 2.9 SSE 13 20 7 11 1019.8 1019.8 0.0
18/09:30pm 15.5 13.6 10.5 72 2.6 S 11 15 6 8 1019.7 1019.7 0.0
18/09:00pm 15.8 13.8 10.3 70 2.9 SSE 11 17 6 9 1019.4 1019.4 0.0
18/08:30pm 16.3 13.6 10.2 67 3.2 S 15 24 8 13 1019.1 1019.1 0.0
18/08:00pm 17.1 13.4 10.2 64 3.6 SSE 20 32 11 17 1018.5 1018.5 0.0
18/07:30pm 17.4 13.6 9.8 61 4.0 S 20 32 11 17 1017.8 1017.8 0.0
18/07:00pm 17.9 14.0 9.3 57 4.5 SSE 20 30 11 16 1017.9 1017.9 0.0
18/06:30pm 17.9 14.3 10.5 62 4.0 S 20 28 11 15 1017.7 1017.7 0.0
18/06:00pm 18.0 13.5 9.9 59 4.3 S 24 32 13 17 1017.7 1017.7 0.0
18/05:30pm 18.1 14.2 10.7 62 4.0 SSE 22 33 12 18 1017.5 1017.5 0.0
18/05:00pm 18.2 14.2 10.6 61 4.1 S 22 30 12 16 1017.7 1017.7 0.0
18/04:30pm 18.6 14.2 11.7 64 3.8 S 26 33 14 18 1017.7 1017.7 0.0
18/04:00pm 19.6 15.3 10.6 56 4.9 S 24 32 13 17 1017.6 1017.6 0.0
18/03:30pm 18.6 14.4 11.2 62 4.0 S 24 32 13 17 1017.7 1017.7 0.0
18/03:00pm 20.2 15.8 10.3 53 5.3 S 24 35 13 19 1017.5 1017.5 0.0
18/02:30pm 20.1 15.5 9.7 51 5.6 S 24 32 13 17 1017.7 1017.7 0.0
18/02:00pm 19.8 16.1 10.2 54 5.2 S 20 28 11 15 1017.7 1017.7 0.0
18/01:30pm 20.0 16.9 11.5 58 4.7 SSE 19 30 10 16 1017.8 1017.8 0.0
18/01:00pm 18.5 15.0 10.8 61 4.2 S 20 30 11 16 1017.9 1017.9 0.0
18/12:30pm 19.0 14.8 9.8 55 4.9 S 22 33 12 18 1017.9 1017.9 0.0
18/12:00pm 18.6 15.5 10.4 59 4.4 SSE 17 26 9 14 1017.6 1017.6 0.0
18/11:30am 18.3 14.8 8.6 53 5.0 S 17 24 9 13 1017.7 1017.7 0.0
18/11:00am 18.3 15.1 9.9 58 4.4 SSE 17 24 9 13 1017.9 1017.9 0.0
18/10:30am 18.0 14.7 9.4 57 4.5 SSE 17 24 9 13 1017.6 1017.6 0.0
18/10:00am 18.3 15.5 9.9 58 4.4 SSE 15 26 8 14 1017.4 1017.4 0.0
18/09:30am 17.5 14.3 10.1 62 3.9 SSE 17 26 9 14 1017.3 1017.3 0.0
18/09:00am 18.7 17.0 11.3 62 4.0 SSE 11 19 6 10 1017.0 1017.0 0.0
18/08:30am 17.2 15.2 10.3 64 3.7 SSW 11 15 6 8 1016.8 1016.8 0.0
18/08:00am 17.0 15.5 10.6 66 3.4 SW 9 13 5 7 1016.5 1016.5 0.0
18/07:30am 16.1 15.0 10.8 71 2.8 SW 7 11 4 6 1016.3 1016.3 0.0
18/07:00am 15.3 13.8 10.7 74 2.4 SW 9 13 5 7 1016.2 1016.2 0.0
18/06:30am 14.6 13.4 10.2 75 2.3 SW 7 9 4 5 1015.7 1015.7 0.0

Other formats

Comma delimited format used in spreadsheet applications
http://www.bom.gov.au/fwo/IDV60801/IDV60801.94857.axf

JavaScript Object Notation format (JSON) in row-major order
http://www.bom.gov.au/fwo/IDV60801/IDV60801.94857.json

Data quality

Most of these data are generated automatically and are frequently updated. Quality checks on data are not normally performed. It is possible for incorrect values to appear. Refer to information at About Latest Weather Observations and please check the disclaimer before using these data.